עמוד ראשי
METAR-TAF:

METAR-TAF

שדות תעופה :

נמל התעופה הבינלאומי אל אלטו

לה פאס, בוליביה

קו רוחב: 16-31S, קו אורך: 068-11W, גובה: 4058מטר

תצפית מזג אוויר נוכחית

הדו"ח נערך לפני 21דקות, בשעה 12:00 UTC
רוח 2קשר עם כיוונים משתנים
טמפרטורת 8 צלסיוס
לחות 93%
לחץ 1039 hPa
ראות: 6000מטר
מעט עננים בגובה 600רגל
עננים פזורים בגובה 7000רגל
עננים בינוניים בגובה 20000רגל

METAR: SLLP 121200Z VRB02KT 6000 FEW006 SCT070 BKN200 08/07 Q1039

זמן: 08:21 (12:21 UTC)

תחזית

הדו"ח נערך לפני 2 שעות ו 21דקות, בשעה 10:00 UTC
תחזית בתוקף מ 12 ב 12 UTC עד 13 ב 12 UTC
רוח 6קשר מכיוון מזרח
ראות: 4000מטר
מעט עננים בגובה 300רגל
עננים בינוניים בגובה 1000רגל
קרעי ערפל
יעשה מ
12 ב 13 UTC עד 12 ב 15 UTC
רוח 10קשר מכיוון דרום-מזרח
ראות 10 קילומטר או יותר
עננים פזורים בגובה 1500רגל
מעט עננים בגובה 1700רגל , קומולונימבוס.
יעשה מ
12 ב 23 UTC עד 13 ב 01 UTC
רוח 5קשר מכיוון צפון-מזרח

TAF: SLLP 121000Z 1212/1312 08006KT 4000E BCFG FEW003 BKN010 TX15/1219Z TN05/1310Z BECMG 1213/1215 13010KT 9999 NSW SCT015 FEW017CB BECMG 1223/1301 04005KT

תצפיות ותחזיות מזג אוויר לגבי יותר מ- 4,000 שדות תעופה ברחבי העולם. דוחות METAR ו- TAF.

התחנות הזמינות מסומנות בנקודות צהובות ואדומות על גבי המפה.

העבר את העכבר לנקודה הצבעונית על מנת לראות את שם התחנה.

לאחר מכן, לחץ כדי לראות את תוכן ואת תחזיות מזג האוויר.

כדי לשנות את המפה: לחץ על הכפתורים הירוקים עם הפלוס השחור כדי להתקרב; על הכפתור הירוק עם המקף כדי להתרחק; או בחיצים הירוקים למפות סמוכות.


METAR-TAF: